Terminal Aerodrome Forecast
Issued by NWS Austin/San Antonio, TX

Home | Current Version | Previous Version | Text Only | Print | Product List | Glossary On
Versions: 1 2 3 4 5 6 7 8 9 10 11 12 13 14
403
FTUS44 KEWX 081742
TAFAUS
TAF
KAUS 081742Z 0818/0924 34013G23KT P6SM SCT200 BKN250
     FM082300 34011KT P6SM BKN250
     FM091800 29008G16KT P6SM SKC=

USA.gov is the U.S. government's official web portal to all federal, state and local government web resources and services.